aviador You're here:

SEGU Decoded Metar

GUAYAQUIL in ECUADOR
Report Time2018-04-26 13:00:00
UTC Time2018-04-26 13:24:58
Flight Rules vfr VFR
Wind150° at 04 kt
W.Decomp.*RWY 21: 2.1 kt HW 3.4 kt LCW
W.Rank150° ranks 5
Current wind is below 150° avg. (5.4)
Visibility9999 m
Phenomena:N/A
Clouds:Few 033 Hf
Broken 100 Hf
Expected CloudBase > 1,600 ft AGL from Temp-Dew spread
Ceiling10,000 ft
Temp26°C (ISA +11)
Dew Point22°C (79% RH)
QNH1012 hPa
Density Alt1,690 ft
Elevation30 ft
Report Wrong Elevation
Raw Report
SEGU 261300Z 15004KT 090V180 9999 FEW033 BKN100 26/22 Q1012 NOSIG
RMK A2988=

Extra information for SEGU:More info

Metar Taf Metar & Taf Last 4 Metars F.Rules Stats Wind Profile Meteogram Temp Stats Airport Information Weather charts Add Link Nearby VenuesMetar ALERT Operation Metar Decoded Social comments